createdAt,value
2017-04-19T00:07:33.264Z,0
2017-04-19T00:17:33.222Z,0
2017-04-19T00:27:33.271Z,0
2017-04-19T00:37:33.226Z,0
2017-04-19T00:47:33.278Z,0
2017-04-19T00:57:33.254Z,0
2017-04-19T01:07:33.322Z,0
2017-04-19T01:17:33.255Z,0
2017-04-19T01:27:33.212Z,0
2017-04-19T01:37:33.282Z,0
2017-04-19T01:47:33.250Z,0
2017-04-19T01:57:33.363Z,0
2017-04-19T02:07:33.279Z,0
2017-04-19T02:17:33.340Z,0
2017-04-19T02:27:33.290Z,0
2017-04-19T02:37:33.360Z,0
2017-04-19T02:47:33.308Z,0
2017-04-19T02:57:33.387Z,0
2017-04-19T03:07:33.377Z,0
2017-04-19T03:17:33.412Z,0
2017-04-19T03:27:33.385Z,0
2017-04-19T03:37:33.337Z,0
2017-04-19T03:47:33.401Z,4
2017-04-19T03:57:33.377Z,12
2017-04-19T04:07:33.411Z,44
2017-04-19T04:17:33.377Z,152
2017-04-19T04:27:33.450Z,388
2017-04-19T04:37:33.391Z,764
2017-04-19T04:47:33.463Z,1224
2017-04-19T04:57:33.471Z,1692
2017-04-19T05:07:33.394Z,2124
2017-04-19T05:17:33.427Z,2520
2017-04-19T05:27:33.452Z,2860
2017-04-19T05:37:33.458Z,3188
2017-04-19T05:47:33.840Z,3480
2017-04-19T05:57:33.492Z,3700
2017-04-19T06:07:33.418Z,3964
2017-04-19T06:17:33.486Z,4280
2017-04-19T06:27:33.450Z,4496
2017-04-19T06:37:33.488Z,4792
2017-04-19T06:47:33.479Z,5056
2017-04-19T06:57:33.534Z,5124
2017-04-19T07:07:33.690Z,5052
2017-04-19T07:17:33.554Z,5580
2017-04-19T07:27:33.563Z,7496
2017-04-19T07:37:33.474Z,12116
2017-04-19T07:47:33.533Z,28544
2017-04-19T07:57:33.502Z,17388
2017-04-19T08:07:33.916Z,10420
2017-04-19T08:17:33.535Z,37888
2017-04-19T08:27:33.585Z,65920
2017-04-19T08:37:33.544Z,12744
2017-04-19T08:47:33.500Z,12536
2017-04-19T08:57:33.586Z,7700
2017-04-19T09:07:33.507Z,9460
2017-04-19T09:17:43.432Z,9804
2017-04-19T09:27:33.550Z,13816
2017-04-19T09:37:33.525Z,12960
2017-04-19T09:47:33.640Z,11572
2017-04-19T09:57:33.603Z,9772
2017-04-19T10:07:33.507Z,16524
2017-04-19T10:17:33.555Z,10132
2017-04-19T10:27:33.550Z,11276
2017-04-19T10:37:33.599Z,9024
2017-04-19T10:47:33.545Z,11892
2017-04-19T10:57:33.495Z,12968
2017-04-19T11:07:34.067Z,7852
2017-04-19T11:17:33.521Z,14840
2017-04-19T11:27:33.498Z,7972
2017-04-19T11:37:33.576Z,7912
2017-04-19T11:47:33.504Z,12860
2017-04-19T11:57:33.564Z,16044
2017-04-19T12:07:33.669Z,16072
2017-04-19T12:17:33.591Z,14084
2017-04-19T12:27:33.582Z,13168
2017-04-19T12:37:33.515Z,11040
2017-04-19T12:47:33.491Z,11268
2017-04-19T12:57:33.554Z,8452
2017-04-19T13:07:33.550Z,4672
2017-04-19T13:17:33.572Z,14116
2017-04-19T13:27:33.514Z,10192
2017-04-19T13:37:33.476Z,11888
2017-04-19T13:47:33.588Z,11096
2017-04-19T13:57:33.511Z,4284
2017-04-19T14:07:33.580Z,4816
2017-04-19T14:17:34.073Z,10968
2017-04-19T14:27:33.645Z,8520
2017-04-19T14:37:37.263Z,10052
2017-04-19T14:47:33.517Z,8156
2017-04-19T14:57:33.511Z,5732
2017-04-19T15:07:33.556Z,10444
2017-04-19T15:17:33.524Z,5136
2017-04-19T15:27:33.517Z,6724
2017-04-19T15:37:33.550Z,3544
2017-04-19T15:47:33.479Z,7416
2017-04-19T15:57:33.954Z,7820
2017-04-19T16:07:33.529Z,4020
2017-04-19T16:17:33.463Z,3576
2017-04-19T16:27:33.526Z,5136
2017-04-19T16:37:33.609Z,4440
2017-04-19T16:47:33.597Z,4696
2017-04-19T16:57:33.466Z,3580
2017-04-19T17:07:33.593Z,3180
2017-04-19T17:17:33.595Z,1796
2017-04-19T17:27:34.522Z,1592
2017-04-19T17:37:33.520Z,1404
2017-04-19T17:47:33.490Z,1368
2017-04-19T17:57:33.553Z,968
2017-04-19T18:07:33.522Z,648
2017-04-19T18:17:33.511Z,384
2017-04-19T18:27:33.554Z,200
2017-04-19T18:37:33.614Z,92
2017-04-19T18:47:33.481Z,36
2017-04-19T18:57:33.639Z,12
2017-04-19T19:07:33.492Z,4
2017-04-19T19:17:34.519Z,0
2017-04-19T19:27:33.603Z,0
2017-04-19T19:37:33.494Z,0
2017-04-19T19:47:33.570Z,0
2017-04-19T19:57:33.501Z,0
2017-04-19T20:07:33.487Z,0
2017-04-19T20:17:33.544Z,0
2017-04-19T20:27:33.490Z,4
2017-04-19T20:37:33.488Z,4
2017-04-19T20:47:33.506Z,0
2017-04-19T20:57:33.736Z,0
2017-04-19T21:07:33.421Z,0
2017-04-19T21:17:33.543Z,0
2017-04-19T21:27:33.454Z,0
2017-04-19T21:37:33.654Z,0
2017-04-19T21:47:33.543Z,0
2017-04-19T21:57:33.476Z,0
2017-04-19T22:07:33.535Z,0
2017-04-19T22:17:33.506Z,0
2017-04-19T22:27:33.442Z,0
2017-04-19T22:37:33.517Z,0
2017-04-19T22:47:33.500Z,0
2017-04-19T22:57:33.566Z,0
2017-04-19T23:07:33.484Z,0
2017-04-19T23:17:33.459Z,0
2017-04-19T23:27:33.529Z,0
2017-04-19T23:37:33.496Z,0
2017-04-19T23:47:33.910Z,0
2017-04-19T23:57:33.512Z,0
